sensor_id;sensor_type;location;lat;lon;timestamp;pressure;altitude;pressure_sealevel;temperature;humidity
64616;BME280;51027;42.162;24.754;2023-04-09T00:01:06;100143.69;;;7.99;100.00
64616;BME280;51027;42.162;24.754;2023-04-09T00:03:32;100114.56;;;7.70;100.00
64616;BME280;51027;42.162;24.754;2023-04-09T00:05:58;100102.66;;;7.54;100.00
64616;BME280;51027;42.162;24.754;2023-04-09T00:08:24;100143.31;;;7.74;100.00
64616;BME280;51027;42.162;24.754;2023-04-09T00:10:50;100138.47;;;7.56;100.00
64616;BME280;51027;42.162;24.754;2023-04-09T00:13:16;100152.59;;;7.91;100.00
64616;BME280;51027;42.162;24.754;2023-04-09T00:15:43;100140.59;;;7.79;100.00
64616;BME280;51027;42.162;24.754;2023-04-09T00:18:08;100152.69;;;7.86;100.00
64616;BME280;51027;42.162;24.754;2023-04-09T00:20:34;100154.28;;;7.93;100.00
64616;BME280;51027;42.162;24.754;2023-04-09T00:22:59;100145.88;;;7.77;100.00
64616;BME280;51027;42.162;24.754;2023-04-09T00:25:25;100161.13;;;8.00;100.00
64616;BME280;51027;42.162;24.754;2023-04-09T00:27:50;100162.63;;;7.70;100.00
64616;BME280;51027;42.162;24.754;2023-04-09T00:30:16;100163.50;;;7.71;100.00
64616;BME280;51027;42.162;24.754;2023-04-09T00:32:41;100167.59;;;7.84;100.00
64616;BME280;51027;42.162;24.754;2023-04-09T00:35:07;100160.53;;;7.43;100.00
64616;BME280;51027;42.162;24.754;2023-04-09T00:37:33;100138.84;;;7.35;100.00
64616;BME280;51027;42.162;24.754;2023-04-09T00:39:58;100164.28;;;7.30;100.00
64616;BME280;51027;42.162;24.754;2023-04-09T00:42:24;100162.66;;;7.22;100.00
64616;BME280;51027;42.162;24.754;2023-04-09T00:44:50;100173.97;;;7.25;100.00
64616;BME280;51027;42.162;24.754;2023-04-09T00:47:16;100156.78;;;7.10;100.00
64616;BME280;51027;42.162;24.754;2023-04-09T00:49:42;100176.72;;;7.18;100.00
64616;BME280;51027;42.162;24.754;2023-04-09T00:52:08;100179.25;;;7.23;100.00
64616;BME280;51027;42.162;24.754;2023-04-09T00:54:34;100176.50;;;7.31;100.00
64616;BME280;51027;42.162;24.754;2023-04-09T00:57:00;100174.88;;;7.22;100.00
64616;BME280;51027;42.162;24.754;2023-04-09T00:59:25;100166.28;;;7.17;100.00
64616;BME280;51027;42.162;24.754;2023-04-09T01:01:51;100169.66;;;7.22;100.00
64616;BME280;51027;42.162;24.754;2023-04-09T01:04:17;100136.88;;;7.00;100.00
64616;BME280;51027;42.162;24.754;2023-04-09T01:06:58;100176.72;;;7.18;100.00
64616;BME280;51027;42.162;24.754;2023-04-09T01:09:49;100178.50;;;7.16;100.00
64616;BME280;51027;42.162;24.754;2023-04-09T01:12:36;100162.34;;;6.90;100.00
64616;BME280;51027;42.162;24.754;2023-04-09T01:15:06;100176.94;;;7.06;100.00
64616;BME280;51027;42.162;24.754;2023-04-09T01:17:38;100150.91;;;6.97;100.00
64616;BME280;51027;42.162;24.754;2023-04-09T01:22:44;100135.00;;;6.54;100.00
64616;BME280;51027;42.162;24.754;2023-04-09T01:28:13;100175.78;;;6.69;100.00
64616;BME280;51027;42.162;24.754;2023-04-09T01:30:43;100177.59;;;6.67;100.00
64616;BME280;51027;42.162;24.754;2023-04-09T01:33:12;100177.56;;;6.68;100.00
64616;BME280;51027;42.162;24.754;2023-04-09T01:35:42;100177.38;;;6.79;100.00
64616;BME280;51027;42.162;24.754;2023-04-09T01:38:08;100174.00;;;6.71;100.00
64616;BME280;51027;42.162;24.754;2023-04-09T01:40:35;100178.16;;;6.84;100.00
64616;BME280;51027;42.162;24.754;2023-04-09T01:43:01;100120.28;;;6.48;100.00
64616;BME280;51027;42.162;24.754;2023-04-09T01:45:27;100178.13;;;6.87;100.00
64616;BME280;51027;42.162;24.754;2023-04-09T01:47:53;100149.34;;;6.84;100.00
64616;BME280;51027;42.162;24.754;2023-04-09T01:50:19;100182.13;;;7.08;100.00
64616;BME280;51027;42.162;24.754;2023-04-09T01:52:46;100173.41;;;7.07;100.00
64616;BME280;51027;42.162;24.754;2023-04-09T01:55:11;100186.84;;;6.87;100.00
64616;BME280;51027;42.162;24.754;2023-04-09T01:57:36;100187.75;;;6.85;100.00
64616;BME280;51027;42.162;24.754;2023-04-09T02:00:03;100184.34;;;6.80;100.00
64616;BME280;51027;42.162;24.754;2023-04-09T02:02:47;100180.81;;;6.82;100.00
64616;BME280;51027;42.162;24.754;2023-04-09T02:05:16;100194.16;;;6.67;100.00
64616;BME280;51027;42.162;24.754;2023-04-09T02:07:46;100194.97;;;6.69;100.00
64616;BME280;51027;42.162;24.754;2023-04-09T02:10:14;100190.63;;;6.68;100.00
64616;BME280;51027;42.162;24.754;2023-04-09T02:12:46;100196.41;;;6.90;100.00
64616;BME280;51027;42.162;24.754;2023-04-09T02:15:13;100196.84;;;6.61;100.00
64616;BME280;51027;42.162;24.754;2023-04-09T02:17:39;100195.69;;;6.80;100.00
64616;BME280;51027;42.162;24.754;2023-04-09T02:20:05;100198.41;;;6.73;100.00
64616;BME280;51027;42.162;24.754;2023-04-09T02:22:31;100200.00;;;6.83;100.00
64616;BME280;51027;42.162;24.754;2023-04-09T02:24:57;100201.72;;;6.84;100.00
64616;BME280;51027;42.162;24.754;2023-04-09T02:27:22;100189.53;;;6.83;100.00
64616;BME280;51027;42.162;24.754;2023-04-09T02:29:48;100195.22;;;7.08;100.00
64616;BME280;51027;42.162;24.754;2023-04-09T02:32:13;100189.53;;;6.81;100.00
64616;BME280;51027;42.162;24.754;2023-04-09T02:34:38;100200.94;;;6.79;100.00
64616;BME280;51027;42.162;24.754;2023-04-09T02:37:04;100181.91;;;6.68;100.00
64616;BME280;51027;42.162;24.754;2023-04-09T02:39:30;100195.66;;;6.82;100.00
64616;BME280;51027;42.162;24.754;2023-04-09T02:41:55;100204.19;;;6.93;100.00
64616;BME280;51027;42.162;24.754;2023-04-09T02:44:22;100184.66;;;6.60;100.00
64616;BME280;51027;42.162;24.754;2023-04-09T02:46:47;100169.69;;;6.68;100.00
64616;BME280;51027;42.162;24.754;2023-04-09T02:49:19;100199.13;;;6.82;100.00
64616;BME280;51027;42.162;24.754;2023-04-09T02:51:44;100207.84;;;6.83;100.00
64616;BME280;51027;42.162;24.754;2023-04-09T02:54:10;100207.16;;;6.72;100.00
64616;BME280;51027;42.162;24.754;2023-04-09T02:56:35;100208.88;;;6.73;100.00
64616;BME280;51027;42.162;24.754;2023-04-09T02:59:00;100210.75;;;6.66;100.00
64616;BME280;51027;42.162;24.754;2023-04-09T03:01:26;100206.22;;;6.74;100.00
64616;BME280;51027;42.162;24.754;2023-04-09T03:03:51;100183.69;;;6.64;100.00
64616;BME280;51027;42.162;24.754;2023-04-09T03:06:17;100209.63;;;6.81;100.00
64616;BME280;51027;42.162;24.754;2023-04-09T03:08:42;100203.69;;;6.70;100.00
64616;BME280;51027;42.162;24.754;2023-04-09T03:11:09;100189.50;;;6.26;100.00
64616;BME280;51027;42.162;24.754;2023-04-09T03:13:34;100206.41;;;6.62;100.00
64616;BME280;51027;42.162;24.754;2023-04-09T03:16:00;100195.31;;;6.48;100.00
64616;BME280;51027;42.162;24.754;2023-04-09T03:18:25;100204.16;;;6.39;100.00
64616;BME280;51027;42.162;24.754;2023-04-09T03:20:51;100187.94;;;6.14;100.00
64616;BME280;51027;42.162;24.754;2023-04-09T03:23:16;100206.84;;;6.34;100.00
64616;BME280;51027;42.162;24.754;2023-04-09T03:25:42;100199.09;;;6.27;100.00
64616;BME280;51027;42.162;24.754;2023-04-09T03:28:07;100174.81;;;6.17;100.00
64616;BME280;51027;42.162;24.754;2023-04-09T03:30:32;100201.78;;;6.19;100.00
64616;BME280;51027;42.162;24.754;2023-04-09T03:32:58;100200.72;;;6.35;100.00
64616;BME280;51027;42.162;24.754;2023-04-09T03:35:23;100207.78;;;6.27;100.00
64616;BME280;51027;42.162;24.754;2023-04-09T03:37:49;100182.63;;;6.19;100.00
64616;BME280;51027;42.162;24.754;2023-04-09T03:40:14;100212.91;;;6.37;100.00
64616;BME280;51027;42.162;24.754;2023-04-09T03:42:43;100192.16;;;6.23;100.00
64616;BME280;51027;42.162;24.754;2023-04-09T03:45:09;100216.47;;;6.31;100.00
64616;BME280;51027;42.162;24.754;2023-04-09T03:47:34;100219.69;;;6.50;100.00
64616;BME280;51027;42.162;24.754;2023-04-09T03:50:00;100198.69;;;6.53;100.00
64616;BME280;51027;42.162;24.754;2023-04-09T03:52:25;100218.63;;;6.61;100.00
64616;BME280;51027;42.162;24.754;2023-04-09T03:54:51;100187.66;;;6.32;100.00
64616;BME280;51027;42.162;24.754;2023-04-09T03:57:16;100222.00;;;6.70;100.00
64616;BME280;51027;42.162;24.754;2023-04-09T03:59:41;100231.53;;;6.77;100.00
64616;BME280;51027;42.162;24.754;2023-04-09T04:02:07;100219.75;;;6.45;100.00
64616;BME280;51027;42.162;24.754;2023-04-09T04:04:32;100230.19;;;6.48;100.00
64616;BME280;51027;42.162;24.754;2023-04-09T04:06:58;100232.56;;;6.63;100.00
64616;BME280;51027;42.162;24.754;2023-04-09T04:09:23;100230.84;;;6.62;100.00
64616;BME280;51027;42.162;24.754;2023-04-09T04:11:49;100233.47;;;6.61;100.00
64616;BME280;51027;42.162;24.754;2023-04-09T04:14:14;100219.38;;;6.71;100.00
64616;BME280;51027;42.162;24.754;2023-04-09T04:16:40;100229.75;;;6.79;100.00
64616;BME280;51027;42.162;24.754;2023-04-09T04:19:06;100235.16;;;6.67;100.00
64616;BME280;51027;42.162;24.754;2023-04-09T04:21:31;100237.97;;;6.51;100.00
64616;BME280;51027;42.162;24.754;2023-04-09T04:23:57;100237.19;;;6.46;100.00
64616;BME280;51027;42.162;24.754;2023-04-09T04:26:22;100219.63;;;6.56;100.00
64616;BME280;51027;42.162;24.754;2023-04-09T04:28:47;100243.91;;;6.64;100.00
64616;BME280;51027;42.162;24.754;2023-04-09T04:31:13;100193.81;;;6.28;100.00
64616;BME280;51027;42.162;24.754;2023-04-09T04:33:40;100242.19;;;6.61;100.00
64616;BME280;51027;42.162;24.754;2023-04-09T04:36:11;100242.97;;;6.68;100.00
64616;BME280;51027;42.162;24.754;2023-04-09T04:38:37;100226.31;;;6.75;100.00
64616;BME280;51027;42.162;24.754;2023-04-09T04:41:03;100239.16;;;6.90;100.00
64616;BME280;51027;42.162;24.754;2023-04-09T04:43:29;100213.81;;;6.92;100.00
64616;BME280;51027;42.162;24.754;2023-04-09T04:45:55;100245.88;;;7.07;100.00
64616;BME280;51027;42.162;24.754;2023-04-09T04:48:20;100240.06;;;6.88;100.00
64616;BME280;51027;42.162;24.754;2023-04-09T04:50:53;100240.69;;;7.04;100.00
64616;BME280;51027;42.162;24.754;2023-04-09T04:53:18;100249.47;;;7.00;100.00
64616;BME280;51027;42.162;24.754;2023-04-09T04:55:44;100232.81;;;7.04;100.00
64616;BME280;51027;42.162;24.754;2023-04-09T04:58:09;100248.47;;;7.08;100.00
64616;BME280;51027;42.162;24.754;2023-04-09T05:00:34;100246.25;;;7.38;100.00
64616;BME280;51027;42.162;24.754;2023-04-09T05:03:00;100250.59;;;7.39;100.00
64616;BME280;51027;42.162;24.754;2023-04-09T05:05:25;100227.06;;;7.34;100.00
64616;BME280;51027;42.162;24.754;2023-04-09T05:07:50;100249.53;;;7.49;100.00
64616;BME280;51027;42.162;24.754;2023-04-09T05:10:16;100255.63;;;7.49;100.00
64616;BME280;51027;42.162;24.754;2023-04-09T05:12:41;100251.91;;;7.63;100.00
64616;BME280;51027;42.162;24.754;2023-04-09T05:15:07;100256.41;;;7.56;100.00
64616;BME280;51027;42.162;24.754;2023-04-09T05:17:32;100239.91;;;7.49;100.00
64616;BME280;51027;42.162;24.754;2023-04-09T05:19:58;100247.75;;;7.51;100.00
64616;BME280;51027;42.162;24.754;2023-04-09T05:22:23;100243.47;;;7.45;100.00
64616;BME280;51027;42.162;24.754;2023-04-09T05:24:49;100247.53;;;7.63;100.00
64616;BME280;51027;42.162;24.754;2023-04-09T05:27:14;100246.66;;;7.63;100.00
64616;BME280;51027;42.162;24.754;2023-04-09T05:29:40;100243.91;;;7.70;100.00
64616;BME280;51027;42.162;24.754;2023-04-09T05:32:05;100237.25;;;7.99;100.00
64616;BME280;51027;42.162;24.754;2023-04-09T05:34:33;100250.38;;;7.96;100.00
64616;BME280;51027;42.162;24.754;2023-04-09T05:36:59;100251.81;;;8.12;100.00
64616;BME280;51027;42.162;24.754;2023-04-09T05:39:24;100251.88;;;8.11;100.00
64616;BME280;51027;42.162;24.754;2023-04-09T05:41:49;100258.13;;;8.03;100.00
64616;BME280;51027;42.162;24.754;2023-04-09T05:44:16;100247.03;;;7.89;100.00
64616;BME280;51027;42.162;24.754;2023-04-09T05:46:42;100259.81;;;8.07;100.00
64616;BME280;51027;42.162;24.754;2023-04-09T05:49:07;100240.25;;;7.79;100.00
64616;BME280;51027;42.162;24.754;2023-04-09T05:51:33;100241.06;;;7.81;100.00
64616;BME280;51027;42.162;24.754;2023-04-09T05:53:58;100267.84;;;7.98;100.00
64616;BME280;51027;42.162;24.754;2023-04-09T05:56:23;100265.00;;;8.09;100.00
64616;BME280;51027;42.162;24.754;2023-04-09T05:58:49;100268.50;;;8.09;100.00
64616;BME280;51027;42.162;24.754;2023-04-09T06:01:15;100267.34;;;8.23;100.00
64616;BME280;51027;42.162;24.754;2023-04-09T06:03:40;100264.16;;;8.08;100.00
64616;BME280;51027;42.162;24.754;2023-04-09T06:06:06;100269.91;;;8.26;100.00
64616;BME280;51027;42.162;24.754;2023-04-09T06:08:31;100275.63;;;8.46;100.00
64616;BME280;51027;42.162;24.754;2023-04-09T06:10:57;100251.72;;;12.87;100.00
64616;BME280;51027;42.162;24.754;2023-04-09T06:13:23;100267.78;;;12.36;100.00
64616;BME280;51027;42.162;24.754;2023-04-09T06:15:48;100278.44;;;10.17;100.00
64616;BME280;51027;42.162;24.754;2023-04-09T06:18:14;100265.53;;;9.42;100.00
64616;BME280;51027;42.162;24.754;2023-04-09T06:20:39;100265.59;;;9.04;100.00
64616;BME280;51027;42.162;24.754;2023-04-09T06:23:05;100277.25;;;8.92;100.00
64616;BME280;51027;42.162;24.754;2023-04-09T06:25:31;100248.19;;;8.98;100.00
64616;BME280;51027;42.162;24.754;2023-04-09T06:27:56;100273.72;;;9.30;100.00
64616;BME280;51027;42.162;24.754;2023-04-09T06:30:22;100277.88;;;9.39;100.00
64616;BME280;51027;42.162;24.754;2023-04-09T06:32:47;100278.34;;;9.19;100.00
64616;BME280;51027;42.162;24.754;2023-04-09T06:35:16;100288.66;;;9.28;100.00
64616;BME280;51027;42.162;24.754;2023-04-09T06:37:41;100273.00;;;9.58;100.00
64616;BME280;51027;42.162;24.754;2023-04-09T06:40:07;100278.03;;;9.67;100.00
64616;BME280;51027;42.162;24.754;2023-04-09T06:42:33;100261.44;;;9.97;100.00
64616;BME280;51027;42.162;24.754;2023-04-09T06:44:58;100250.25;;;9.57;100.00
64616;BME280;51027;42.162;24.754;2023-04-09T06:47:24;100274.28;;;9.43;100.00
64616;BME280;51027;42.162;24.754;2023-04-09T06:49:49;100276.34;;;9.64;100.00
64616;BME280;51027;42.162;24.754;2023-04-09T06:52:14;100266.75;;;9.28;100.00
64616;BME280;51027;42.162;24.754;2023-04-09T06:54:40;100276.31;;;9.66;100.00
64616;BME280;51027;42.162;24.754;2023-04-09T06:57:07;100269.81;;;9.79;100.00
64616;BME280;51027;42.162;24.754;2023-04-09T06:59:32;100266.06;;;9.88;100.00
64616;BME280;51027;42.162;24.754;2023-04-09T07:01:58;100265.59;;;10.37;100.00
64616;BME280;51027;42.162;24.754;2023-04-09T07:04:24;100286.34;;;10.48;100.00
64616;BME280;51027;42.162;24.754;2023-04-09T07:06:50;100286.69;;;10.04;100.00
64616;BME280;51027;42.162;24.754;2023-04-09T07:09:16;100289.81;;;10.17;100.00
64616;BME280;51027;42.162;24.754;2023-04-09T07:11:42;100283.56;;;10.23;100.00
64616;BME280;51027;42.162;24.754;2023-04-09T07:14:08;100266.66;;;10.30;100.00
64616;BME280;51027;42.162;24.754;2023-04-09T07:16:33;100285.25;;;10.84;100.00
64616;BME280;51027;42.162;24.754;2023-04-09T07:18:58;100287.34;;;11.01;100.00
64616;BME280;51027;42.162;24.754;2023-04-09T07:21:24;100286.31;;;11.33;100.00
64616;BME280;51027;42.162;24.754;2023-04-09T07:23:50;100280.00;;;11.39;100.00
64616;BME280;51027;42.162;24.754;2023-04-09T07:26:16;100252.66;;;11.15;100.00
64616;BME280;51027;42.162;24.754;2023-04-09T07:28:41;100278.47;;;11.58;100.00
64616;BME280;51027;42.162;24.754;2023-04-09T07:31:07;100282.16;;;12.04;100.00
64616;BME280;51027;42.162;24.754;2023-04-09T07:33:32;100281.56;;;12.44;100.00
64616;BME280;51027;42.162;24.754;2023-04-09T07:35:58;100281.75;;;12.16;100.00
64616;BME280;51027;42.162;24.754;2023-04-09T07:38:23;100274.09;;;12.32;100.00
64616;BME280;51027;42.162;24.754;2023-04-09T07:40:49;100263.75;;;12.26;100.00
64616;BME280;51027;42.162;24.754;2023-04-09T07:43:14;100270.78;;;12.50;100.00
64616;BME280;51027;42.162;24.754;2023-04-09T07:45:41;100280.75;;;11.94;100.00
64616;BME280;51027;42.162;24.754;2023-04-09T07:48:06;100272.84;;;12.19;100.00
64616;BME280;51027;42.162;24.754;2023-04-09T07:50:33;100276.41;;;12.41;100.00
64616;BME280;51027;42.162;24.754;2023-04-09T07:52:58;100285.19;;;12.42;100.00
64616;BME280;51027;42.162;24.754;2023-04-09T07:55:24;100271.69;;;12.94;100.00
64616;BME280;51027;42.162;24.754;2023-04-09T07:57:50;100279.28;;;13.68;96.57
64616;BME280;51027;42.162;24.754;2023-04-09T08:00:16;100278.78;;;14.00;73.78
64616;BME280;51027;42.162;24.754;2023-04-09T08:02:42;100272.44;;;14.23;72.86
64616;BME280;51027;42.162;24.754;2023-04-09T08:05:08;100278.19;;;14.33;70.84
64616;BME280;51027;42.162;24.754;2023-04-09T08:07:33;100276.59;;;14.49;69.95
64616;BME280;51027;42.162;24.754;2023-04-09T08:09:59;100279.91;;;14.54;68.52
64616;BME280;51027;42.162;24.754;2023-04-09T08:12:25;100277.56;;;14.07;70.09
64616;BME280;51027;42.162;24.754;2023-04-09T08:14:50;100271.16;;;14.52;67.89
64616;BME280;51027;42.162;24.754;2023-04-09T08:17:15;100285.84;;;14.78;65.37
64616;BME280;51027;42.162;24.754;2023-04-09T08:19:41;100286.25;;;15.07;65.12
64616;BME280;51027;42.162;24.754;2023-04-09T08:22:06;100285.56;;;15.03;64.16
64616;BME280;51027;42.162;24.754;2023-04-09T08:24:31;100286.78;;;15.86;63.01
64616;BME280;51027;42.162;24.754;2023-04-09T08:26:57;100286.94;;;15.65;60.67
64616;BME280;51027;42.162;24.754;2023-04-09T08:29:23;100275.03;;;16.07;60.44
64616;BME280;51027;42.162;24.754;2023-04-09T08:31:49;100281.84;;;15.78;59.91
64616;BME280;51027;42.162;24.754;2023-04-09T08:34:14;100279.97;;;16.30;59.31
64616;BME280;51027;42.162;24.754;2023-04-09T08:36:44;100276.06;;;15.70;60.38
64616;BME280;51027;42.162;24.754;2023-04-09T08:39:09;100266.72;;;15.26;61.80
64616;BME280;51027;42.162;24.754;2023-04-09T08:41:40;100270.31;;;15.25;62.23
64616;BME280;51027;42.162;24.754;2023-04-09T08:44:06;100266.59;;;15.47;61.26
64616;BME280;51027;42.162;24.754;2023-04-09T08:46:35;100251.81;;;15.59;60.45
64616;BME280;51027;42.162;24.754;2023-04-09T08:49:00;100272.69;;;16.67;58.27
64616;BME280;51027;42.162;24.754;2023-04-09T08:51:26;100265.94;;;16.11;59.69
64616;BME280;51027;42.162;24.754;2023-04-09T08:53:58;100263.81;;;15.67;60.13
64616;BME280;51027;42.162;24.754;2023-04-09T08:56:24;100270.50;;;16.09;58.77
64616;BME280;51027;42.162;24.754;2023-04-09T08:58:54;100268.78;;;16.08;59.14
64616;BME280;51027;42.162;24.754;2023-04-09T09:01:20;100274.47;;;16.00;58.93
64616;BME280;51027;42.162;24.754;2023-04-09T09:06:20;100253.03;;;15.88;58.62
64616;BME280;51027;42.162;24.754;2023-04-09T09:08:58;100271.25;;;16.11;59.05
64616;BME280;51027;42.162;24.754;2023-04-09T09:11:25;100244.69;;;16.60;57.12
64616;BME280;51027;42.162;24.754;2023-04-09T09:14:01;100263.38;;;16.76;56.11
64616;BME280;51027;42.162;24.754;2023-04-09T09:16:26;100266.88;;;17.69;54.07
64616;BME280;51027;42.162;24.754;2023-04-09T09:18:52;100261.81;;;17.03;55.18
64616;BME280;51027;42.162;24.754;2023-04-09T09:21:20;100208.63;;;15.90;55.72
64616;BME280;51027;42.162;24.754;2023-04-09T09:23:46;100260.84;;;16.24;55.74
64616;BME280;51027;42.162;24.754;2023-04-09T09:26:19;100258.03;;;16.27;55.57
64616;BME280;51027;42.162;24.754;2023-04-09T09:28:46;100250.94;;;16.10;56.62
64616;BME280;51027;42.162;24.754;2023-04-09T09:31:12;100243.81;;;16.28;57.33
64616;BME280;51027;42.162;24.754;2023-04-09T09:33:39;100241.84;;;16.14;57.28
64616;BME280;51027;42.162;24.754;2023-04-09T09:36:05;100245.22;;;15.84;57.17
64616;BME280;51027;42.162;24.754;2023-04-09T09:38:31;100246.66;;;16.40;55.33
64616;BME280;51027;42.162;24.754;2023-04-09T09:40:57;100233.16;;;16.28;56.03
64616;BME280;51027;42.162;24.754;2023-04-09T09:43:39;100236.94;;;16.88;53.92
64616;BME280;51027;42.162;24.754;2023-04-09T09:46:05;100215.19;;;16.49;52.74
64616;BME280;51027;42.162;24.754;2023-04-09T09:48:31;100229.44;;;17.11;52.29
64616;BME280;51027;42.162;24.754;2023-04-09T09:50:56;100199.50;;;15.78;54.44
64616;BME280;51027;42.162;24.754;2023-04-09T09:53:23;100228.38;;;16.50;53.77
64616;BME280;51027;42.162;24.754;2023-04-09T09:55:52;100233.00;;;17.25;51.58
64616;BME280;51027;42.162;24.754;2023-04-09T09:58:27;100230.66;;;16.74;52.35
64616;BME280;51027;42.162;24.754;2023-04-09T10:00:56;100232.47;;;16.73;51.80
64616;BME280;51027;42.162;24.754;2023-04-09T10:03:26;100224.28;;;16.60;52.68
64616;BME280;51027;42.162;24.754;2023-04-09T10:05:52;100204.91;;;16.90;52.37
64616;BME280;51027;42.162;24.754;2023-04-09T10:08:19;100225.25;;;17.07;51.47
64616;BME280;51027;42.162;24.754;2023-04-09T10:10:45;100208.09;;;17.26;50.43
64616;BME280;51027;42.162;24.754;2023-04-09T10:13:19;100209.41;;;17.49;49.48
64616;BME280;51027;42.162;24.754;2023-04-09T10:15:49;100217.06;;;17.10;49.86
64616;BME280;51027;42.162;24.754;2023-04-09T10:18:17;100212.72;;;16.93;51.48
64616;BME280;51027;42.162;24.754;2023-04-09T10:20:49;100200.31;;;16.45;53.66
64616;BME280;51027;42.162;24.754;2023-04-09T10:23:31;100209.09;;;16.94;52.49
64616;BME280;51027;42.162;24.754;2023-04-09T10:25:58;100193.06;;;16.48;50.21
64616;BME280;51027;42.162;24.754;2023-04-09T10:28:23;100189.63;;;16.93;51.06
64616;BME280;51027;42.162;24.754;2023-04-09T10:30:49;100186.53;;;17.01;51.02
64616;BME280;51027;42.162;24.754;2023-04-09T10:33:15;100182.47;;;17.10;51.11
64616;BME280;51027;42.162;24.754;2023-04-09T10:35:45;100175.25;;;17.42;50.63
64616;BME280;51027;42.162;24.754;2023-04-09T10:38:13;100167.06;;;17.15;49.85
64616;BME280;51027;42.162;24.754;2023-04-09T10:40:40;100177.53;;;16.72;50.18
64616;BME280;51027;42.162;24.754;2023-04-09T10:43:06;100170.91;;;17.55;49.18
64616;BME280;51027;42.162;24.754;2023-04-09T10:45:41;100167.78;;;17.63;48.88
64616;BME280;51027;42.162;24.754;2023-04-09T10:48:13;100156.16;;;17.64;48.72
64616;BME280;51027;42.162;24.754;2023-04-09T10:50:41;100170.25;;;17.66;44.89
64616;BME280;51027;42.162;24.754;2023-04-09T10:53:07;100164.03;;;17.81;43.73
64616;BME280;51027;42.162;24.754;2023-04-09T10:55:47;100162.97;;;17.98;43.36
64616;BME280;51027;42.162;24.754;2023-04-09T10:58:14;100156.91;;;17.37;41.29
64616;BME280;51027;42.162;24.754;2023-04-09T11:00:41;100156.25;;;17.62;40.97
64616;BME280;51027;42.162;24.754;2023-04-09T11:03:23;100153.06;;;18.69;39.40
64616;BME280;51027;42.162;24.754;2023-04-09T11:06:05;100146.03;;;18.68;39.68
64616;BME280;51027;42.162;24.754;2023-04-09T11:08:36;100134.88;;;18.21;40.73
64616;BME280;51027;42.162;24.754;2023-04-09T11:11:06;100137.00;;;17.43;42.77
64616;BME280;51027;42.162;24.754;2023-04-09T11:13:32;100134.69;;;17.95;41.92
64616;BME280;51027;42.162;24.754;2023-04-09T11:15:58;100128.19;;;17.56;40.75
64616;BME280;51027;42.162;24.754;2023-04-09T11:18:27;100122.06;;;17.99;41.08
64616;BME280;51027;42.162;24.754;2023-04-09T11:20:59;100123.25;;;17.65;40.53
64616;BME280;51027;42.162;24.754;2023-04-09T11:23:25;100125.00;;;17.80;41.08
64616;BME280;51027;42.162;24.754;2023-04-09T11:25:51;100121.50;;;17.35;41.25
64616;BME280;51027;42.162;24.754;2023-04-09T11:28:17;100109.50;;;17.72;41.78
64616;BME280;51027;42.162;24.754;2023-04-09T11:30:43;100108.97;;;17.51;41.51
64616;BME280;51027;42.162;24.754;2023-04-09T11:33:11;100113.91;;;17.43;41.06
64616;BME280;51027;42.162;24.754;2023-04-09T11:35:36;100099.31;;;17.79;39.83
64616;BME280;51027;42.162;24.754;2023-04-09T11:38:09;100090.66;;;17.90;38.88
64616;BME280;51027;42.162;24.754;2023-04-09T11:40:35;100090.75;;;17.74;38.69
64616;BME280;51027;42.162;24.754;2023-04-09T11:43:01;100092.47;;;17.89;38.77
64616;BME280;51027;42.162;24.754;2023-04-09T11:45:28;100089.38;;;17.95;39.82
64616;BME280;51027;42.162;24.754;2023-04-09T11:47:54;100084.91;;;17.39;38.49
64616;BME280;51027;42.162;24.754;2023-04-09T11:50:21;100078.91;;;17.35;36.90
64616;BME280;51027;42.162;24.754;2023-04-09T11:52:48;100084.78;;;17.26;37.95
64616;BME280;51027;42.162;24.754;2023-04-09T11:55:27;100075.59;;;17.74;35.20
64616;BME280;51027;42.162;24.754;2023-04-09T11:57:56;100065.13;;;18.00;33.82
64616;BME280;51027;42.162;24.754;2023-04-09T12:00:22;100072.25;;;17.56;35.33
64616;BME280;51027;42.162;24.754;2023-04-09T12:02:51;100067.69;;;17.87;34.64
64616;BME280;51027;42.162;24.754;2023-04-09T12:05:24;100054.59;;;18.25;34.63
64616;BME280;51027;42.162;24.754;2023-04-09T12:07:51;100055.59;;;18.64;34.40
64616;BME280;51027;42.162;24.754;2023-04-09T12:10:16;100061.38;;;18.43;33.07
64616;BME280;51027;42.162;24.754;2023-04-09T12:12:46;100050.59;;;18.45;33.54
64616;BME280;51027;42.162;24.754;2023-04-09T12:15:19;100051.78;;;18.41;32.57
64616;BME280;51027;42.162;24.754;2023-04-09T12:17:49;100044.50;;;18.30;34.02
64616;BME280;51027;42.162;24.754;2023-04-09T12:23:04;100043.22;;;18.36;35.01
64616;BME280;51027;42.162;24.754;2023-04-09T12:25:37;100042.25;;;18.64;35.68
64616;BME280;51027;42.162;24.754;2023-04-09T12:28:04;100040.00;;;18.31;35.32
64616;BME280;51027;42.162;24.754;2023-04-09T12:30:31;100033.03;;;18.82;35.75
64616;BME280;51027;42.162;24.754;2023-04-09T12:32:57;100035.91;;;18.25;36.00
64616;BME280;51027;42.162;24.754;2023-04-09T12:35:23;100035.00;;;18.12;37.79
64616;BME280;51027;42.162;24.754;2023-04-09T12:37:49;100032.72;;;18.20;38.48
64616;BME280;51027;42.162;24.754;2023-04-09T12:40:16;100029.75;;;17.41;39.40
64616;BME280;51027;42.162;24.754;2023-04-09T12:42:43;100033.63;;;17.64;38.88
64616;BME280;51027;42.162;24.754;2023-04-09T12:45:10;100024.13;;;17.88;38.33
64616;BME280;51027;42.162;24.754;2023-04-09T12:47:36;100012.78;;;17.99;37.50